sensor_id;sensor_type;location;lat;lon;timestamp;temperature;humidity
46488;DHT22;32202;48.780;9.204;2023-02-04T00:01:49;8.60;99.90
46488;DHT22;32202;48.780;9.204;2023-02-04T00:04:15;8.50;99.90
46488;DHT22;32202;48.780;9.204;2023-02-04T00:06:40;8.50;99.90
46488;DHT22;32202;48.780;9.204;2023-02-04T00:09:06;8.40;99.90
46488;DHT22;32202;48.780;9.204;2023-02-04T00:11:32;8.50;99.90
46488;DHT22;32202;48.780;9.204;2023-02-04T00:13:57;8.40;99.90
46488;DHT22;32202;48.780;9.204;2023-02-04T00:16:23;8.40;99.90
46488;DHT22;32202;48.780;9.204;2023-02-04T00:18:49;8.30;99.90
46488;DHT22;32202;48.780;9.204;2023-02-04T00:21:15;8.40;99.90
46488;DHT22;32202;48.780;9.204;2023-02-04T00:23:40;8.40;99.90
46488;DHT22;32202;48.780;9.204;2023-02-04T00:26:06;8.40;99.90
46488;DHT22;32202;48.780;9.204;2023-02-04T00:28:32;8.40;99.90
46488;DHT22;32202;48.780;9.204;2023-02-04T00:30:57;8.40;99.90
46488;DHT22;32202;48.780;9.204;2023-02-04T00:33:23;8.40;99.90
46488;DHT22;32202;48.780;9.204;2023-02-04T00:35:48;8.40;99.90
46488;DHT22;32202;48.780;9.204;2023-02-04T00:38:14;8.40;99.90
46488;DHT22;32202;48.780;9.204;2023-02-04T00:40:40;8.40;99.90
46488;DHT22;32202;48.780;9.204;2023-02-04T00:43:05;8.40;99.90
46488;DHT22;32202;48.780;9.204;2023-02-04T00:45:31;8.50;99.90
46488;DHT22;32202;48.780;9.204;2023-02-04T00:47:56;8.50;99.90
46488;DHT22;32202;48.780;9.204;2023-02-04T00:50:22;8.50;99.90
46488;DHT22;32202;48.780;9.204;2023-02-04T00:52:48;8.50;99.90
46488;DHT22;32202;48.780;9.204;2023-02-04T00:55:14;8.60;99.90
46488;DHT22;32202;48.780;9.204;2023-02-04T00:57:41;8.50;99.90
46488;DHT22;32202;48.780;9.204;2023-02-04T01:00:07;8.60;99.90
46488;DHT22;32202;48.780;9.204;2023-02-04T01:02:33;8.50;99.90
46488;DHT22;32202;48.780;9.204;2023-02-04T01:04:59;8.50;99.90
46488;DHT22;32202;48.780;9.204;2023-02-04T01:07:24;8.40;99.90
46488;DHT22;32202;48.780;9.204;2023-02-04T01:09:50;8.40;99.90
46488;DHT22;32202;48.780;9.204;2023-02-04T01:12:15;8.30;99.90
46488;DHT22;32202;48.780;9.204;2023-02-04T01:14:41;8.30;99.90
46488;DHT22;32202;48.780;9.204;2023-02-04T01:17:07;8.20;99.90
46488;DHT22;32202;48.780;9.204;2023-02-04T01:19:32;8.20;99.90
46488;DHT22;32202;48.780;9.204;2023-02-04T01:21:58;8.20;99.90
46488;DHT22;32202;48.780;9.204;2023-02-04T01:24:23;8.20;99.90
46488;DHT22;32202;48.780;9.204;2023-02-04T01:26:49;8.20;99.90
46488;DHT22;32202;48.780;9.204;2023-02-04T01:29:14;8.20;99.90
46488;DHT22;32202;48.780;9.204;2023-02-04T01:31:40;8.20;99.90
46488;DHT22;32202;48.780;9.204;2023-02-04T01:34:06;8.20;99.90
46488;DHT22;32202;48.780;9.204;2023-02-04T01:36:31;8.10;99.90
46488;DHT22;32202;48.780;9.204;2023-02-04T01:38:57;8.10;99.90
46488;DHT22;32202;48.780;9.204;2023-02-04T01:41:25;8.10;99.90
46488;DHT22;32202;48.780;9.204;2023-02-04T01:43:51;8.20;99.90
46488;DHT22;32202;48.780;9.204;2023-02-04T01:46:16;8.10;99.90
46488;DHT22;32202;48.780;9.204;2023-02-04T01:48:42;8.10;99.90
46488;DHT22;32202;48.780;9.204;2023-02-04T01:51:11;8.10;99.90
46488;DHT22;32202;48.780;9.204;2023-02-04T01:53:38;8.10;99.90
46488;DHT22;32202;48.780;9.204;2023-02-04T01:56:30;8.00;99.90
46488;DHT22;32202;48.780;9.204;2023-02-04T01:58:57;8.10;99.90
46488;DHT22;32202;48.780;9.204;2023-02-04T02:01:37;8.00;99.90
46488;DHT22;32202;48.780;9.204;2023-02-04T02:04:03;8.00;99.90
46488;DHT22;32202;48.780;9.204;2023-02-04T02:06:30;8.00;99.90
46488;DHT22;32202;48.780;9.204;2023-02-04T02:08:56;8.00;99.90
46488;DHT22;32202;48.780;9.204;2023-02-04T02:11:23;8.00;99.90
46488;DHT22;32202;48.780;9.204;2023-02-04T02:13:49;8.10;99.90
46488;DHT22;32202;48.780;9.204;2023-02-04T02:16:14;8.00;99.90
46488;DHT22;32202;48.780;9.204;2023-02-04T02:18:40;8.00;99.90
46488;DHT22;32202;48.780;9.204;2023-02-04T02:21:08;8.00;99.90
46488;DHT22;32202;48.780;9.204;2023-02-04T02:23:55;8.00;99.90
46488;DHT22;32202;48.780;9.204;2023-02-04T02:26:25;8.00;99.90
46488;DHT22;32202;48.780;9.204;2023-02-04T02:28:51;8.00;99.90
46488;DHT22;32202;48.780;9.204;2023-02-04T02:31:19;8.00;99.90
46488;DHT22;32202;48.780;9.204;2023-02-04T02:33:46;7.90;99.90
46488;DHT22;32202;48.780;9.204;2023-02-04T02:36:12;8.00;99.90
46488;DHT22;32202;48.780;9.204;2023-02-04T02:38:38;7.90;99.90
46488;DHT22;32202;48.780;9.204;2023-02-04T02:41:04;7.90;99.90
46488;DHT22;32202;48.780;9.204;2023-02-04T02:43:30;7.90;99.90
46488;DHT22;32202;48.780;9.204;2023-02-04T02:45:58;7.80;99.90
46488;DHT22;32202;48.780;9.204;2023-02-04T02:48:24;7.80;99.90
46488;DHT22;32202;48.780;9.204;2023-02-04T02:50:50;7.80;99.90
46488;DHT22;32202;48.780;9.204;2023-02-04T02:53:18;7.80;99.90
46488;DHT22;32202;48.780;9.204;2023-02-04T02:55:44;7.80;99.90
46488;DHT22;32202;48.780;9.204;2023-02-04T02:58:24;7.80;99.90
46488;DHT22;32202;48.780;9.204;2023-02-04T03:00:51;7.70;99.90
46488;DHT22;32202;48.780;9.204;2023-02-04T03:03:20;7.70;99.90
46488;DHT22;32202;48.780;9.204;2023-02-04T03:05:50;7.70;99.90
46488;DHT22;32202;48.780;9.204;2023-02-04T03:08:16;7.70;99.90
46488;DHT22;32202;48.780;9.204;2023-02-04T03:10:43;7.70;99.90
46488;DHT22;32202;48.780;9.204;2023-02-04T03:13:10;7.70;99.90
46488;DHT22;32202;48.780;9.204;2023-02-04T03:15:36;7.70;99.90
46488;DHT22;32202;48.780;9.204;2023-02-04T03:18:02;7.70;99.90
46488;DHT22;32202;48.780;9.204;2023-02-04T03:20:29;7.70;99.90
46488;DHT22;32202;48.780;9.204;2023-02-04T03:22:56;7.70;99.90
46488;DHT22;32202;48.780;9.204;2023-02-04T03:25:24;7.70;99.90
46488;DHT22;32202;48.780;9.204;2023-02-04T03:27:51;7.60;99.90
46488;DHT22;32202;48.780;9.204;2023-02-04T03:30:19;7.60;99.90
46488;DHT22;32202;48.780;9.204;2023-02-04T03:32:45;7.70;99.90
46488;DHT22;32202;48.780;9.204;2023-02-04T03:35:10;7.60;99.90
46488;DHT22;32202;48.780;9.204;2023-02-04T03:37:36;7.70;99.90
46488;DHT22;32202;48.780;9.204;2023-02-04T03:40:02;7.60;99.90
46488;DHT22;32202;48.780;9.204;2023-02-04T03:42:28;7.60;99.90
46488;DHT22;32202;48.780;9.204;2023-02-04T03:44:54;7.70;99.90
46488;DHT22;32202;48.780;9.204;2023-02-04T03:47:20;7.60;99.90
46488;DHT22;32202;48.780;9.204;2023-02-04T03:49:45;7.60;99.90
46488;DHT22;32202;48.780;9.204;2023-02-04T03:52:11;7.50;99.90
46488;DHT22;32202;48.780;9.204;2023-02-04T03:54:36;7.50;99.90
46488;DHT22;32202;48.780;9.204;2023-02-04T03:57:02;7.50;99.90
46488;DHT22;32202;48.780;9.204;2023-02-04T03:59:27;7.50;99.90
46488;DHT22;32202;48.780;9.204;2023-02-04T04:01:53;7.50;99.90
46488;DHT22;32202;48.780;9.204;2023-02-04T04:04:18;7.50;99.90
46488;DHT22;32202;48.780;9.204;2023-02-04T04:06:44;7.50;99.90
46488;DHT22;32202;48.780;9.204;2023-02-04T04:09:09;7.50;99.90
46488;DHT22;32202;48.780;9.204;2023-02-04T04:11:35;7.40;99.90
46488;DHT22;32202;48.780;9.204;2023-02-04T04:14:01;7.40;99.90
46488;DHT22;32202;48.780;9.204;2023-02-04T04:16:27;7.40;99.90
46488;DHT22;32202;48.780;9.204;2023-02-04T04:18:53;7.30;99.90
46488;DHT22;32202;48.780;9.204;2023-02-04T04:21:18;7.40;99.90
46488;DHT22;32202;48.780;9.204;2023-02-04T04:23:44;7.40;99.90
46488;DHT22;32202;48.780;9.204;2023-02-04T04:26:09;7.40;99.90
46488;DHT22;32202;48.780;9.204;2023-02-04T04:28:35;7.40;99.90
46488;DHT22;32202;48.780;9.204;2023-02-04T04:31:00;7.40;99.90
46488;DHT22;32202;48.780;9.204;2023-02-04T04:33:26;7.50;99.90
46488;DHT22;32202;48.780;9.204;2023-02-04T04:35:52;7.40;99.90
46488;DHT22;32202;48.780;9.204;2023-02-04T04:38:17;7.40;99.90
46488;DHT22;32202;48.780;9.204;2023-02-04T04:40:43;7.40;99.90
46488;DHT22;32202;48.780;9.204;2023-02-04T04:43:08;7.40;99.90
46488;DHT22;32202;48.780;9.204;2023-02-04T04:45:34;7.40;99.90
46488;DHT22;32202;48.780;9.204;2023-02-04T04:47:59;7.40;99.90
46488;DHT22;32202;48.780;9.204;2023-02-04T04:50:25;7.40;99.90
46488;DHT22;32202;48.780;9.204;2023-02-04T04:52:51;7.40;99.90
46488;DHT22;32202;48.780;9.204;2023-02-04T04:55:16;7.40;99.90
46488;DHT22;32202;48.780;9.204;2023-02-04T04:57:42;7.50;99.90
46488;DHT22;32202;48.780;9.204;2023-02-04T05:00:09;7.50;99.90
46488;DHT22;32202;48.780;9.204;2023-02-04T05:02:36;7.50;99.90
46488;DHT22;32202;48.780;9.204;2023-02-04T05:05:01;7.40;99.90
46488;DHT22;32202;48.780;9.204;2023-02-04T05:07:27;7.40;99.90
46488;DHT22;32202;48.780;9.204;2023-02-04T05:09:52;7.40;99.90
46488;DHT22;32202;48.780;9.204;2023-02-04T05:12:18;7.30;99.90
46488;DHT22;32202;48.780;9.204;2023-02-04T05:14:43;7.30;99.90
46488;DHT22;32202;48.780;9.204;2023-02-04T05:17:09;7.30;99.90
46488;DHT22;32202;48.780;9.204;2023-02-04T05:19:34;7.30;99.90
46488;DHT22;32202;48.780;9.204;2023-02-04T05:22:00;7.20;99.90
46488;DHT22;32202;48.780;9.204;2023-02-04T05:24:29;7.20;99.90
46488;DHT22;32202;48.780;9.204;2023-02-04T05:26:54;7.20;99.90
46488;DHT22;32202;48.780;9.204;2023-02-04T05:29:23;7.30;99.90
46488;DHT22;32202;48.780;9.204;2023-02-04T05:31:49;7.30;99.90
46488;DHT22;32202;48.780;9.204;2023-02-04T05:34:14;7.20;99.90
46488;DHT22;32202;48.780;9.204;2023-02-04T05:36:40;7.20;99.90
46488;DHT22;32202;48.780;9.204;2023-02-04T05:39:05;7.10;99.90
46488;DHT22;32202;48.780;9.204;2023-02-04T05:41:31;7.10;99.90
46488;DHT22;32202;48.780;9.204;2023-02-04T05:43:56;7.00;99.90
46488;DHT22;32202;48.780;9.204;2023-02-04T05:46:22;7.00;99.90
46488;DHT22;32202;48.780;9.204;2023-02-04T05:48:48;6.90;99.90
46488;DHT22;32202;48.780;9.204;2023-02-04T05:51:14;7.00;99.90
46488;DHT22;32202;48.780;9.204;2023-02-04T05:53:39;7.00;99.90
46488;DHT22;32202;48.780;9.204;2023-02-04T05:56:05;6.90;99.90
46488;DHT22;32202;48.780;9.204;2023-02-04T05:58:31;6.90;99.90
46488;DHT22;32202;48.780;9.204;2023-02-04T06:01:03;6.90;99.90
46488;DHT22;32202;48.780;9.204;2023-02-04T06:03:29;6.90;99.90
46488;DHT22;32202;48.780;9.204;2023-02-04T06:05:55;6.90;99.90
46488;DHT22;32202;48.780;9.204;2023-02-04T06:08:21;7.00;99.90
46488;DHT22;32202;48.780;9.204;2023-02-04T06:10:47;7.00;99.90
46488;DHT22;32202;48.780;9.204;2023-02-04T06:13:13;6.90;99.90
46488;DHT22;32202;48.780;9.204;2023-02-04T06:15:39;6.90;99.90
46488;DHT22;32202;48.780;9.204;2023-02-04T06:18:05;6.90;99.90
46488;DHT22;32202;48.780;9.204;2023-02-04T06:20:31;6.90;99.90
46488;DHT22;32202;48.780;9.204;2023-02-04T06:22:56;6.90;99.90
46488;DHT22;32202;48.780;9.204;2023-02-04T06:25:23;6.80;99.90
46488;DHT22;32202;48.780;9.204;2023-02-04T06:27:48;6.80;99.90
46488;DHT22;32202;48.780;9.204;2023-02-04T06:30:15;6.90;99.90
46488;DHT22;32202;48.780;9.204;2023-02-04T06:32:40;6.90;99.90
46488;DHT22;32202;48.780;9.204;2023-02-04T06:35:06;6.90;99.90
46488;DHT22;32202;48.780;9.204;2023-02-04T06:37:32;6.80;99.90
46488;DHT22;32202;48.780;9.204;2023-02-04T06:39:58;6.70;99.90
46488;DHT22;32202;48.780;9.204;2023-02-04T06:42:24;6.70;99.90
46488;DHT22;32202;48.780;9.204;2023-02-04T06:44:50;6.80;99.90
46488;DHT22;32202;48.780;9.204;2023-02-04T06:47:16;6.80;99.90
46488;DHT22;32202;48.780;9.204;2023-02-04T06:49:42;6.80;99.90
46488;DHT22;32202;48.780;9.204;2023-02-04T06:52:07;6.70;99.90
46488;DHT22;32202;48.780;9.204;2023-02-04T06:54:33;6.80;99.90
46488;DHT22;32202;48.780;9.204;2023-02-04T06:56:59;6.80;99.90
46488;DHT22;32202;48.780;9.204;2023-02-04T06:59:34;6.80;99.90
46488;DHT22;32202;48.780;9.204;2023-02-04T07:02:01;6.80;99.90
46488;DHT22;32202;48.780;9.204;2023-02-04T07:04:27;6.80;99.90
46488;DHT22;32202;48.780;9.204;2023-02-04T07:06:52;6.80;99.90
46488;DHT22;32202;48.780;9.204;2023-02-04T07:09:18;6.80;99.90
46488;DHT22;32202;48.780;9.204;2023-02-04T07:11:44;6.80;99.90
46488;DHT22;32202;48.780;9.204;2023-02-04T07:14:09;6.80;99.90
46488;DHT22;32202;48.780;9.204;2023-02-04T07:16:35;6.80;99.90
46488;DHT22;32202;48.780;9.204;2023-02-04T07:19:01;6.80;99.90
46488;DHT22;32202;48.780;9.204;2023-02-04T07:21:27;6.80;99.90
46488;DHT22;32202;48.780;9.204;2023-02-04T07:23:53;6.90;99.90
46488;DHT22;32202;48.780;9.204;2023-02-04T07:26:18;6.80;99.90
46488;DHT22;32202;48.780;9.204;2023-02-04T07:28:44;6.90;99.90
46488;DHT22;32202;48.780;9.204;2023-02-04T07:31:10;7.00;99.90
46488;DHT22;32202;48.780;9.204;2023-02-04T07:33:36;7.10;99.90
46488;DHT22;32202;48.780;9.204;2023-02-04T07:36:01;7.10;99.90
46488;DHT22;32202;48.780;9.204;2023-02-04T07:38:27;7.10;99.90
46488;DHT22;32202;48.780;9.204;2023-02-04T07:40:52;7.10;99.90
46488;DHT22;32202;48.780;9.204;2023-02-04T07:43:18;7.20;99.90
46488;DHT22;32202;48.780;9.204;2023-02-04T07:45:44;7.20;99.90
46488;DHT22;32202;48.780;9.204;2023-02-04T07:48:09;7.30;99.90
46488;DHT22;32202;48.780;9.204;2023-02-04T07:50:35;7.20;99.90
46488;DHT22;32202;48.780;9.204;2023-02-04T07:53:01;7.30;99.90
46488;DHT22;32202;48.780;9.204;2023-02-04T07:55:26;7.30;99.90
46488;DHT22;32202;48.780;9.204;2023-02-04T07:57:53;7.30;99.90
46488;DHT22;32202;48.780;9.204;2023-02-04T08:00:18;7.30;99.90
46488;DHT22;32202;48.780;9.204;2023-02-04T08:02:44;7.30;99.90
46488;DHT22;32202;48.780;9.204;2023-02-04T08:05:10;7.30;99.90
46488;DHT22;32202;48.780;9.204;2023-02-04T08:07:35;7.30;99.90
46488;DHT22;32202;48.780;9.204;2023-02-04T08:10:03;7.20;99.90
46488;DHT22;32202;48.780;9.204;2023-02-04T08:12:28;7.20;99.90
46488;DHT22;32202;48.780;9.204;2023-02-04T08:14:54;7.20;99.90
46488;DHT22;32202;48.780;9.204;2023-02-04T08:17:20;7.20;99.90
46488;DHT22;32202;48.780;9.204;2023-02-04T08:19:46;7.30;99.90
46488;DHT22;32202;48.780;9.204;2023-02-04T08:22:11;7.40;99.90
46488;DHT22;32202;48.780;9.204;2023-02-04T08:24:37;7.50;99.90
46488;DHT22;32202;48.780;9.204;2023-02-04T08:27:02;7.70;99.90
46488;DHT22;32202;48.780;9.204;2023-02-04T08:29:28;7.80;99.90
46488;DHT22;32202;48.780;9.204;2023-02-04T08:31:54;8.00;99.90
46488;DHT22;32202;48.780;9.204;2023-02-04T08:34:20;8.20;99.90
46488;DHT22;32202;48.780;9.204;2023-02-04T08:36:45;8.40;99.80
46488;DHT22;32202;48.780;9.204;2023-02-04T08:39:11;8.50;98.50
46488;DHT22;32202;48.780;9.204;2023-02-04T08:41:37;8.60;98.00
46488;DHT22;32202;48.780;9.204;2023-02-04T08:44:03;8.70;96.90
46488;DHT22;32202;48.780;9.204;2023-02-04T08:46:28;8.70;96.60
46488;DHT22;32202;48.780;9.204;2023-02-04T08:48:54;8.90;96.10
46488;DHT22;32202;48.780;9.204;2023-02-04T08:51:20;9.00;95.50
46488;DHT22;32202;48.780;9.204;2023-02-04T08:53:45;9.20;94.80
46488;DHT22;32202;48.780;9.204;2023-02-04T08:56:11;9.30;94.40
46488;DHT22;32202;48.780;9.204;2023-02-04T08:58:41;9.30;94.20
46488;DHT22;32202;48.780;9.204;2023-02-04T09:01:07;9.30;94.20
46488;DHT22;32202;48.780;9.204;2023-02-04T09:03:32;9.30;94.30
46488;DHT22;32202;48.780;9.204;2023-02-04T09:05:58;9.20;95.00
46488;DHT22;32202;48.780;9.204;2023-02-04T09:08:24;9.30;94.90
46488;DHT22;32202;48.780;9.204;2023-02-04T09:10:49;9.50;94.60
46488;DHT22;32202;48.780;9.204;2023-02-04T09:13:15;9.70;94.40
46488;DHT22;32202;48.780;9.204;2023-02-04T09:15:43;10.00;94.10
46488;DHT22;32202;48.780;9.204;2023-02-04T09:18:09;10.20;92.50
46488;DHT22;32202;48.780;9.204;2023-02-04T09:20:49;10.70;91.70
46488;DHT22;32202;48.780;9.204;2023-02-04T09:23:15;10.80;90.90
46488;DHT22;32202;48.780;9.204;2023-02-04T09:25:42;11.10;90.40
46488;DHT22;32202;48.780;9.204;2023-02-04T09:28:09;11.40;89.20
46488;DHT22;32202;48.780;9.204;2023-02-04T09:30:36;11.80;86.70
46488;DHT22;32202;48.780;9.204;2023-02-04T09:33:01;11.70;85.00
46488;DHT22;32202;48.780;9.204;2023-02-04T09:35:27;12.10;84.70
46488;DHT22;32202;48.780;9.204;2023-02-04T09:37:53;12.70;80.90
46488;DHT22;32202;48.780;9.204;2023-02-04T09:40:18;13.10;78.70
46488;DHT22;32202;48.780;9.204;2023-02-04T09:42:49;13.20;77.90
46488;DHT22;32202;48.780;9.204;2023-02-04T09:45:22;13.40;77.00
46488;DHT22;32202;48.780;9.204;2023-02-04T09:47:49;14.50;71.10
46488;DHT22;32202;48.780;9.204;2023-02-04T09:50:18;16.80;63.10
46488;DHT22;32202;48.780;9.204;2023-02-04T09:52:46;19.40;53.30
46488;DHT22;32202;48.780;9.204;2023-02-04T09:55:15;20.60;49.10
46488;DHT22;32202;48.780;9.204;2023-02-04T09:57:41;20.80;47.10
46488;DHT22;32202;48.780;9.204;2023-02-04T10:00:19;22.20;45.90
46488;DHT22;32202;48.780;9.204;2023-02-04T10:02:46;24.80;40.00
46488;DHT22;32202;48.780;9.204;2023-02-04T10:05:18;24.10;40.00
46488;DHT22;32202;48.780;9.204;2023-02-04T10:07:44;22.60;41.40
46488;DHT22;32202;48.780;9.204;2023-02-04T10:10:16;21.90;42.90
46488;DHT22;32202;48.780;9.204;2023-02-04T10:12:43;20.90;43.30
46488;DHT22;32202;48.780;9.204;2023-02-04T10:15:17;20.00;44.70
46488;DHT22;32202;48.780;9.204;2023-02-04T10:17:48;19.80;44.20
46488;DHT22;32202;48.780;9.204;2023-02-04T10:20:16;19.40;45.00
46488;DHT22;32202;48.780;9.204;2023-02-04T10:22:43;18.30;45.70
46488;DHT22;32202;48.780;9.204;2023-02-04T10:25:13;17.10;48.20
46488;DHT22;32202;48.780;9.204;2023-02-04T10:27:56;15.90;50.60
46488;DHT22;32202;48.780;9.204;2023-02-04T10:30:25;15.00;53.30
46488;DHT22;32202;48.780;9.204;2023-02-04T10:32:52;14.40;54.40
46488;DHT22;32202;48.780;9.204;2023-02-04T10:35:20;13.90;55.60
46488;DHT22;32202;48.780;9.204;2023-02-04T10:37:46;13.50;56.40
46488;DHT22;32202;48.780;9.204;2023-02-04T10:40:32;13.30;57.40
46488;DHT22;32202;48.780;9.204;2023-02-04T10:42:59;13.10;58.90
46488;DHT22;32202;48.780;9.204;2023-02-04T10:45:25;13.10;57.90
46488;DHT22;32202;48.780;9.204;2023-02-04T10:47:52;13.00;58.00
46488;DHT22;32202;48.780;9.204;2023-02-04T10:50:20;13.00;58.70
46488;DHT22;32202;48.780;9.204;2023-02-04T10:52:48;13.00;56.70
46488;DHT22;32202;48.780;9.204;2023-02-04T10:55:21;13.10;57.00
46488;DHT22;32202;48.780;9.204;2023-02-04T10:57:49;13.20;57.00
46488;DHT22;32202;48.780;9.204;2023-02-04T11:00:20;13.40;56.50
46488;DHT22;32202;48.780;9.204;2023-02-04T11:02:57;14.20;55.40
46488;DHT22;32202;48.780;9.204;2023-02-04T11:05:29;16.20;52.10
46488;DHT22;32202;48.780;9.204;2023-02-04T11:07:55;17.40;49.20
46488;DHT22;32202;48.780;9.204;2023-02-04T11:10:23;19.00;46.30
46488;DHT22;32202;48.780;9.204;2023-02-04T11:15:46;24.40;39.10
46488;DHT22;32202;48.780;9.204;2023-02-04T11:20:44;26.20;35.60
46488;DHT22;32202;48.780;9.204;2023-02-04T11:26:01;22.00;40.40
46488;DHT22;32202;48.780;9.204;2023-02-04T11:28:27;20.10;43.10
46488;DHT22;32202;48.780;9.204;2023-02-04T11:31:00;18.60;45.30
46488;DHT22;32202;48.780;9.204;2023-02-04T11:33:36;17.40;47.20
46488;DHT22;32202;48.780;9.204;2023-02-04T11:36:04;16.40;49.40
46488;DHT22;32202;48.780;9.204;2023-02-04T11:38:31;15.50;50.90
46488;DHT22;32202;48.780;9.204;2023-02-04T11:40:58;15.00;51.80
46488;DHT22;32202;48.780;9.204;2023-02-04T11:43:25;14.60;52.90
46488;DHT22;32202;48.780;9.204;2023-02-04T11:46:09;14.20;53.30
46488;DHT22;32202;48.780;9.204;2023-02-04T11:48:36;13.90;54.20
46488;DHT22;32202;48.780;9.204;2023-02-04T11:51:08;13.60;55.30
46488;DHT22;32202;48.780;9.204;2023-02-04T11:53:34;13.30;55.90
46488;DHT22;32202;48.780;9.204;2023-02-04T11:56:00;13.10;56.70
46488;DHT22;32202;48.780;9.204;2023-02-04T11:58:28;13.00;57.20
46488;DHT22;32202;48.780;9.204;2023-02-04T12:00:55;13.00;57.00
46488;DHT22;32202;48.780;9.204;2023-02-04T12:03:26;13.00;57.00
46488;DHT22;32202;48.780;9.204;2023-02-04T12:05:53;13.00;56.60
46488;DHT22;32202;48.780;9.204;2023-02-04T12:10:59;13.60;55.70
46488;DHT22;32202;48.780;9.204;2023-02-04T12:13:25;14.30;55.00
46488;DHT22;32202;48.780;9.204;2023-02-04T12:16:05;14.80;53.80
46488;DHT22;32202;48.780;9.204;2023-02-04T12:18:33;15.30;51.20
46488;DHT22;32202;48.780;9.204;2023-02-04T12:21:00;15.50;50.10
46488;DHT22;32202;48.780;9.204;2023-02-04T12:23:27;15.70;49.70
46488;DHT22;32202;48.780;9.204;2023-02-04T12:25:54;15.80;50.10
46488;DHT22;32202;48.780;9.204;2023-02-04T12:28:19;15.50;50.70
46488;DHT22;32202;48.780;9.204;2023-02-04T12:30:45;15.60;50.00
46488;DHT22;32202;48.780;9.204;2023-02-04T12:33:11;15.50;50.20
46488;DHT22;32202;48.780;9.204;2023-02-04T12:35:36;16.30;49.10
46488;DHT22;32202;48.780;9.204;2023-02-04T12:38:03;16.50;48.30
46488;DHT22;32202;48.780;9.204;2023-02-04T12:40:28;16.40;48.40
46488;DHT22;32202;48.780;9.204;2023-02-04T12:42:54;16.00;49.20
46488;DHT22;32202;48.780;9.204;2023-02-04T12:45:20;15.50;49.90
46488;DHT22;32202;48.780;9.204;2023-02-04T12:47:46;14.90;50.90
46488;DHT22;32202;48.780;9.204;2023-02-04T12:50:13;14.40;51.40
46488;DHT22;32202;48.780;9.204;2023-02-04T12:52:39;14.00;51.70
46488;DHT22;32202;48.780;9.204;2023-02-04T12:55:07;13.50;52.50
46488;DHT22;32202;48.780;9.204;2023-02-04T12:57:33;13.10;53.70
46488;DHT22;32202;48.780;9.204;2023-02-04T12:59:59;12.70;54.60
46488;DHT22;32202;48.780;9.204;2023-02-04T13:02:27;12.40;55.70
46488;DHT22;32202;48.780;9.204;2023-02-04T13:04:53;12.20;55.90
46488;DHT22;32202;48.780;9.204;2023-02-04T13:07:18;12.10;57.50
46488;DHT22;32202;48.780;9.204;2023-02-04T13:09:45;11.90;59.20
46488;DHT22;32202;48.780;9.204;2023-02-04T13:12:10;11.80;60.20
46488;DHT22;32202;48.780;9.204;2023-02-04T13:14:40;11.70;60.70
46488;DHT22;32202;48.780;9.204;2023-02-04T13:17:06;11.60;60.90
46488;DHT22;32202;48.780;9.204;2023-02-04T13:19:31;11.40;60.80
46488;DHT22;32202;48.780;9.204;2023-02-04T13:21:57;11.40;61.00
46488;DHT22;32202;48.780;9.204;2023-02-04T13:24:23;11.40;61.30
46488;DHT22;32202;48.780;9.204;2023-02-04T13:26:49;11.60;61.10
46488;DHT22;32202;48.780;9.204;2023-02-04T13:29:14;11.80;60.80
46488;DHT22;32202;48.780;9.204;2023-02-04T13:31:40;12.00;59.80
46488;DHT22;32202;48.780;9.204;2023-02-04T13:34:05;12.30;59.20
46488;DHT22;32202;48.780;9.204;2023-02-04T13:36:31;12.40;58.70
46488;DHT22;32202;48.780;9.204;2023-02-04T13:38:57;12.40;58.10
46488;DHT22;32202;48.780;9.204;2023-02-04T13:41:24;12.40;58.20
46488;DHT22;32202;48.780;9.204;2023-02-04T13:43:50;12.40;58.20
46488;DHT22;32202;48.780;9.204;2023-02-04T13:46:15;12.50;58.30
46488;DHT22;32202;48.780;9.204;2023-02-04T13:48:41;12.60;58.20
46488;DHT22;32202;48.780;9.204;2023-02-04T13:51:07;13.00;57.20
46488;DHT22;32202;48.780;9.204;2023-02-04T13:53:32;13.50;56.20
46488;DHT22;32202;48.780;9.204;2023-02-04T13:55:58;13.60;55.60
46488;DHT22;32202;48.780;9.204;2023-02-04T13:58:24;13.40;55.40
46488;DHT22;32202;48.780;9.204;2023-02-04T14:00:49;13.00;55.80
46488;DHT22;32202;48.780;9.204;2023-02-04T14:03:15;12.70;56.80
46488;DHT22;32202;48.780;9.204;2023-02-04T14:05:40;12.30;56.80
46488;DHT22;32202;48.780;9.204;2023-02-04T14:08:06;12.10;58.00
46488;DHT22;32202;48.780;9.204;2023-02-04T14:10:31;12.40;57.90
46488;DHT22;32202;48.780;9.204;2023-02-04T14:12:57;13.00;56.60
46488;DHT22;32202;48.780;9.204;2023-02-04T14:15:23;13.30;56.00
46488;DHT22;32202;48.780;9.204;2023-02-04T14:17:49;13.20;56.00
46488;DHT22;32202;48.780;9.204;2023-02-04T14:20:15;13.00;56.40
46488;DHT22;32202;48.780;9.204;2023-02-04T14:22:41;12.80;57.50
46488;DHT22;32202;48.780;9.204;2023-02-04T14:25:07;12.50;58.10
46488;DHT22;32202;48.780;9.204;2023-02-04T14:27:34;12.20;59.30
46488;DHT22;32202;48.780;9.204;2023-02-04T14:30:01;12.00;60.00
46488;DHT22;32202;48.780;9.204;2023-02-04T14:32:26;11.70;60.80
46488;DHT22;32202;48.780;9.204;2023-02-04T14:34:52;11.50;62.00
46488;DHT22;32202;48.780;9.204;2023-02-04T14:37:17;11.30;61.50
46488;DHT22;32202;48.780;9.204;2023-02-04T14:39:43;11.70;61.60
46488;DHT22;32202;48.780;9.204;2023-02-04T14:42:09;12.30;60.20
46488;DHT22;32202;48.780;9.204;2023-02-04T14:44:34;12.50;59.30
46488;DHT22;32202;48.780;9.204;2023-02-04T14:47:00;12.50;59.00
46488;DHT22;32202;48.780;9.204;2023-02-04T14:49:25;12.20;59.30
46488;DHT22;32202;48.780;9.204;2023-02-04T14:51:51;12.60;59.10
46488;DHT22;32202;48.780;9.204;2023-02-04T14:54:17;13.60;56.80
46488;DHT22;32202;48.780;9.204;2023-02-04T14:56:42;14.50;54.00
46488;DHT22;32202;48.780;9.204;2023-02-04T14:59:10;15.40;52.20
46488;DHT22;32202;48.780;9.204;2023-02-04T15:01:36;16.00;50.80
46488;DHT22;32202;48.780;9.204;2023-02-04T15:04:01;16.20;50.70
46488;DHT22;32202;48.780;9.204;2023-02-04T15:06:27;16.50;48.90
46488;DHT22;32202;48.780;9.204;2023-02-04T15:08:53;16.40;50.20
46488;DHT22;32202;48.780;9.204;2023-02-04T15:11:18;16.20;48.80
46488;DHT22;32202;48.780;9.204;2023-02-04T15:13:44;15.70;49.00
46488;DHT22;32202;48.780;9.204;2023-02-04T15:16:09;14.90;50.10
46488;DHT22;32202;48.780;9.204;2023-02-04T15:18:36;14.10;51.10
46488;DHT22;32202;48.780;9.204;2023-02-04T15:21:02;13.30;53.00
46488;DHT22;32202;48.780;9.204;2023-02-04T15:23:27;12.60;54.10
46488;DHT22;32202;48.780;9.204;2023-02-04T15:25:53;12.20;55.20
46488;DHT22;32202;48.780;9.204;2023-02-04T15:28:22;11.70;56.70
46488;DHT22;32202;48.780;9.204;2023-02-04T15:30:48;11.40;58.80
46488;DHT22;32202;48.780;9.204;2023-02-04T15:33:13;11.10;59.10
46488;DHT22;32202;48.780;9.204;2023-02-04T15:35:41;10.90;58.60
46488;DHT22;32202;48.780;9.204;2023-02-04T15:38:06;10.70;59.90
46488;DHT22;32202;48.780;9.204;2023-02-04T15:40:32;10.50;60.10
46488;DHT22;32202;48.780;9.204;2023-02-04T15:42:57;10.30;60.40
46488;DHT22;32202;48.780;9.204;2023-02-04T15:45:23;10.10;61.40
46488;DHT22;32202;48.780;9.204;2023-02-04T15:47:49;9.90;62.00